Schwenksville, PA (19473)

8:21 AM EST on February 08, 2016 (GMT -0500)
Highlands Fox Heath | | Change Station
CLOSE
Current Station
Personal Weather Station
Location: Schwenksville, PA
Elevation: 249 ft
Nearby Weather Stations

Elev 249 ft 40.24 °N, 75.47 °W | Updated 9 seconds ago

Overcast
Overcast
35.2 °F
Feels Like 35 °F
N
0.2
Wind Variable Wind from NNE
Gusts 2.5 mph

Today
High -- | Low -- °F
--% Chance of Precip.
Yesterday
High -- | Low -- °F
Precip. -- in
Pressure 29.81 in
Visibility 10.0 miles
Clouds Overcast 3200 ft
Windchill 35 °F
Dew Point 22 °F
Humidity 58%
Rainfall 0.00 in
Snow Depth Not available.
7:04 AM 5:28 PM
Waning Crescent, 0% visible
METAR KPTW 081254Z AUTO 35005KT 10SM OVC032 01/M04 A2980 RMK AO2 SLP093 T00111044
Pressure 29.81 in
Visibility 10.0 miles
Clouds Overcast 3200 ft
Windchill 35 °F
Dew Point 22 °F
Humidity 58%
Rainfall 0.00 in
Snow Depth Not available.
7:04 AM 5:28 PM
Waning Crescent, 0% visible
METAR KPTW 081254Z AUTO 35005KT 10SM OVC032 01/M04 A2980 RMK AO2 SLP093 T00111044

10-Day Weather Forecast

Almanac

Astronomy

Feb. 08, 2016 Rise Set
Actual Time
Civil Twilight
Nautical Twilight
Astronomical Twilight
Moon
Length of Visible Light
Length of Day
Tomorrow will be .
, % of the Moon is Illuminated

Today's Extremes

State Highs State Lows

Community

WunderPhotos

Upload Photos

1,891,434 photos uploaded!

WunderBlog® & News

Nearby

Air Quality

  Air Quality AQ Index Pollutant
Not available.

Snow Depth

Station Depth Elevation

Earthquake Activity

City Distance Mag. Time & Date
Minimum magnitude displayed is 2.5.

Coastal Water Temperatures

Place Temperature

Stations

Nearby Weather Stations

Station Location Temp. Windchill Dew Point Humidity Wind Precip. Elev Updated Type
                   

Watches & Warnings

There are currently no watches in effect.